Time;durP1;ratioP1;P1;durP2;ratioP2;P2;SDS_P1;SDS_P2;PMS_P1;PMS_P2;Temp;Humidity;BMP_temperature;BMP_pressure;BME280_temperature;BME280_humidity;BME280_pressure;Samples;Min_cycle;Max_cycle;Signal;HPM_P1;HPM_P2
2023/11/18 14:12:05;;;;;;;3.22;1.13;;;;;;;23.00;26.16;101389.34;5116699;27;20417;-79
2023/11/18 14:14:59;;;;;;;10.68;1.25;;;;;;;23.10;26.30;101387.84;5114648;28;20042;-78
2023/11/18 14:17:54;;;;;;;4.75;0.98;;;;;;;22.16;27.67;101376.16;5108677;28;20546;-79
2023/11/18 14:20:48;;;;;;;2.55;1.17;;;;;;;22.27;27.33;101381.84;5122471;27;20043;-79
2023/11/18 14:23:41;;;;;;;6.45;0.82;;;;;;;21.96;27.23;101383.03;5109352;28;20047;-78
2023/11/18 14:26:35;;;;;;;6.55;1.15;;;;;;;21.93;27.03;101377.44;5099599;28;20408;-80
2023/11/18 14:29:28;;;;;;;7.07;0.75;;;;;;;21.99;27.25;101381.50;5125720;27;20046;-81
2023/11/18 14:32:23;;;;;;;1.10;0.57;;;;;;;21.65;24.49;101369.53;5125673;27;20039;-80
2023/11/18 14:35:16;;;;;;;0.80;0.47;;;;;;;20.25;25.37;101367.53;5100258;28;20055;-81
2023/11/18 14:38:11;;;;;;;1.10;0.57;;;;;;;19.74;25.40;101374.34;5102187;28;20051;-81
2023/11/18 14:41:08;;;;;;;1.80;0.70;;;;;;;19.34;25.94;101378.16;5104265;28;20046;-82
2023/11/18 14:44:03;;;;;;;3.58;1.48;;;;;;;18.99;25.88;101380.03;5104139;28;20047;-81
2023/11/18 14:46:58;;;;;;;11.18;0.57;;;;;;;18.64;26.58;101368.91;5124187;27;20051;-82
2023/11/18 14:49:50;;;;;;;0.80;0.50;;;;;;;18.41;26.35;101370.59;5091456;28;20524;-81
2023/11/18 14:52:45;;;;;;;4.75;0.70;;;;;;;18.12;26.97;101374.53;5103856;28;20520;-80
2023/11/18 14:55:39;;;;;;;1.33;0.82;;;;;;;17.91;27.55;101370.00;5101156;28;20043;-82
2023/11/18 14:58:32;;;;;;;;;;;;;;;17.50;28.66;101371.09;5106055;28;20038;-82
2023/11/18 15:01:26;;;;;;;1.00;0.65;;;;;;;17.08;28.67;101384.25;5118948;27;19916;-79
2023/11/18 15:04:18;;;;;;;1.20;0.70;;;;;;;16.71;28.48;101379.84;5096231;28;20532;-78
2023/11/18 15:07:12;;;;;;;1.92;0.60;;;;;;;16.33;29.39;101369.09;5112317;28;20046;-80
2023/11/18 15:10:06;;;;;;;1.05;0.70;;;;;;;16.21;29.92;101367.09;5085171;28;20594;-79
2023/11/18 15:13:02;;;;;;;1.27;0.68;;;;;;;15.72;31.91;101382.50;5106199;28;20532;-78
2023/11/18 15:15:54;;;;;;;2.80;0.98;;;;;;;15.43;32.36;101388.00;5095943;28;20059;-79
2023/11/18 15:18:49;;;;;;;15.18;1.92;;;;;;;15.81;32.65;101396.16;5107794;28;20395;-81
2023/11/18 15:21:41;;;;;;;7.00;1.55;;;;;;;16.04;31.99;101382.91;5117553;27;20039;-79
2023/11/18 15:24:36;;;;;;;2.28;0.70;;;;;;;15.99;33.07;101386.66;5106887;28;20424;-78
2023/11/18 15:27:28;;;;;;;0.83;0.60;;;;;;;15.96;33.88;101376.34;5093336;28;20043;-79
2023/11/18 15:30:25;;;;;;;8.30;1.65;;;;;;;16.05;33.46;101374.34;5093721;28;20047;-79
2023/11/18 15:33:17;;;;;;;0.90;0.63;;;;;;;16.00;31.56;101376.50;5091497;28;20412;-79
2023/11/18 15:36:16;;;;;;;0.65;0.65;;;;;;;16.01;31.49;101365.16;5098329;28;20047;-79
2023/11/18 15:39:14;;;;;;;1.65;0.82;;;;;;;15.99;32.22;101353.75;5081644;28;20047;-79
2023/11/18 15:42:06;;;;;;;9.25;3.53;;;;;;;15.89;32.50;101356.91;5106912;28;20055;-79
2023/11/18 15:45:01;;;;;;;10.45;5.40;;;;;;;15.69;32.71;101347.53;5106904;28;20513;-79
2023/11/18 15:47:53;;;;;;;38.13;15.73;;;;;;;15.49;33.40;101361.19;5108563;28;20067;-79
2023/11/18 15:50:48;;;;;;;101.10;36.78;;;;;;;15.48;33.49;101382.31;5094026;28;20043;-79
2023/11/18 15:53:42;;;;;;;68.28;24.30;;;;;;;15.25;33.37;101376.31;5093028;28;20048;-79
2023/11/18 15:56:37;;;;;;;108.32;39.58;;;;;;;15.23;33.68;101372.31;5093111;28;20055;-79
2023/11/18 15:59:27;;;;;;;58.85;25.42;;;;;;;15.15;33.60;101375.88;5092529;28;20043;-79
2023/11/18 16:02:19;;;;;;;79.15;31.90;;;;;;;15.11;33.68;101375.75;5080364;28;20043;-79
2023/11/18 16:05:13;;;;;;;34.43;15.67;;;;;;;15.05;33.83;101379.78;5098302;28;20050;-79
2023/11/18 16:08:08;;;;;;;47.90;19.30;;;;;;;15.06;33.96;101372.38;5081567;28;20638;-79
2023/11/18 16:11:00;;;;;;;23.83;8.82;;;;;;;14.97;34.42;101366.94;5092143;28;20043;-79
2023/11/18 16:13:55;;;;;;;53.90;22.05;;;;;;;14.82;34.10;101365.56;5097210;28;20043;-79
2023/11/18 16:16:49;;;;;;;27.60;10.33;;;;;;;14.86;34.15;101368.44;5094617;28;20043;-79
2023/11/18 16:19:42;;;;;;;25.85;4.70;;;;;;;14.66;35.50;101378.16;5092008;28;20059;-79
2023/11/18 16:22:37;;;;;;;10.18;3.90;;;;;;;14.58;35.52;101376.22;5092088;28;20043;-79
2023/11/18 16:25:30;;;;;;;9.05;3.47;;;;;;;14.62;35.50;101370.94;5093348;28;20051;-79
2023/11/18 16:28:22;;;;;;;6.97;2.88;;;;;;;14.57;36.67;101379.31;5096404;28;20063;-79
2023/11/18 16:31:16;;;;;;;3.50;2.13;;;;;;;14.28;37.04;101374.50;5106089;28;20039;-79
2023/11/18 16:34:10;;;;;;;5.53;3.13;;;;;;;14.15;37.33;101384.50;5104806;28;20047;-81
2023/11/18 16:37:02;;;;;;;6.28;2.67;;;;;;;14.09;38.11;101374.84;5087693;28;20051;-81
2023/11/18 16:39:54;;;;;;;14.35;4.38;;;;;;;13.73;39.92;101371.59;5086924;28;20043;-81
2023/11/18 16:42:52;;;;;;;9.02;3.40;;;;;;;13.57;40.39;101385.72;5105606;28;20412;-80
2023/11/18 16:45:42;;;;;;;11.95;2.95;;;;;;;13.53;39.87;101383.94;5086708;28;20512;-81
2023/11/18 16:48:37;;;;;;;7.07;4.07;;;;;;;13.72;38.90;101384.47;5103346;28;20051;-81
2023/11/18 16:51:32;;;;;;;11.00;6.73;;;;;;;13.71;38.56;101380.13;5107912;28;20043;-81
2023/11/18 16:54:26;;;;;;;10.80;6.60;;;;;;;13.65;38.89;101381.41;5105489;28;20277;-81
2023/11/18 16:57:21;;;;;;;15.00;3.95;;;;;;;13.68;38.52;101383.50;5105038;28;20276;-80
2023/11/18 17:00:17;;;;;;;14.02;6.93;;;;;;;13.51;38.58;101395.19;5105362;28;20511;-79
2023/11/18 17:03:12;;;;;;;17.45;10.13;;;;;;;13.60;38.67;101385.09;5092220;28;20062;-79
2023/11/18 17:06:06;;;;;;;25.88;11.90;;;;;;;13.75;38.38;101380.31;5095511;28;20044;-80
2023/11/18 17:08:56;;;;;;;17.35;8.73;;;;;;;13.60;38.77;101373.38;5107689;28;20036;-80
2023/11/18 17:11:49;;;;;;;16.92;6.07;;;;;;;13.59;38.84;101379.94;5105741;28;20059;-80
2023/11/18 17:14:44;;;;;;;10.77;5.85;;;;;;;13.54;38.96;101383.66;5108875;28;20051;-80
2023/11/18 17:17:38;;;;;;;11.45;6.05;;;;;;;13.55;39.05;101385.25;5104583;28;20047;-79
2023/11/18 17:20:36;;;;;;;14.07;5.68;;;;;;;13.56;39.31;101386.06;5107296;28;20043;-80
2023/11/18 17:23:31;;;;;;;11.15;6.03;;;;;;;13.44;39.34;101381.22;5093342;28;20039;-79
2023/11/18 17:26:29;;;;;;;22.10;7.33;;;;;;;13.37;39.30;101380.84;5101112;28;20047;-79
2023/11/18 17:29:26;;;;;;;17.70;8.02;;;;;;;13.28;39.52;101393.69;5094461;28;20055;-79
2023/11/18 17:32:18;;;;;;;12.00;6.40;;;;;;;13.18;39.85;101405.72;5086978;28;20043;-80
2023/11/18 17:35:18;;;;;;;10.82;4.40;;;;;;;13.25;40.13;101408.00;5104697;28;20051;-82
2023/11/18 17:38:07;;;;;;;11.95;5.75;;;;;;;12.94;40.82;101402.53;5092876;28;20051;-81
2023/11/18 17:40:59;;;;;;;8.73;3.90;;;;;;;12.81;41.13;101412.41;5104862;28;20401;-82
2023/11/18 17:43:54;;;;;;;7.38;3.30;;;;;;;12.87;41.53;101410.34;5070212;28;20054;-80
2023/11/18 17:46:46;;;;;;;32.93;15.33;;;;;;;13.30;41.63;101407.03;5078573;28;20048;-81
2023/11/18 17:49:35;;;;;;;41.80;14.82;;;;;;;13.23;42.28;101411.03;5074514;28;20509;-81
2023/11/18 17:52:32;;;;;;;10.18;4.40;;;;;;;12.96;42.30;101418.56;5087173;28;20373;-81
2023/11/18 17:55:28;;;;;;;15.43;6.03;;;;;;;12.86;42.71;101415.00;5105285;28;20051;-81
2023/11/18 17:58:23;;;;;;;16.23;6.70;;;;;;;12.89;42.84;101418.25;5087613;28;20042;-80
2023/11/18 18:01:16;;;;;;;8.57;4.65;;;;;;;12.82;42.62;101416.75;5084918;28;20051;-80
2023/11/18 18:04:16;;;;;;;16.88;6.13;;;;;;;12.67;42.74;101422.59;5080045;28;20051;-80
2023/11/18 18:07:08;;;;;;;9.30;5.28;;;;;;;12.68;42.82;101418.75;5088996;28;20055;-80
2023/11/18 18:10:02;;;;;;;33.25;14.10;;;;;;;12.68;42.41;101429.69;5083499;28;20094;-81
2023/11/18 18:12:54;;;;;;;26.88;12.50;;;;;;;12.41;43.75;101429.81;5086604;28;20043;-80
2023/11/18 18:15:46;;;;;;;12.55;4.95;;;;;;;12.08;44.12;101425.69;5086341;28;20036;-80
2023/11/18 18:18:41;;;;;;;6.43;3.50;;;;;;;11.94;45.13;101426.53;5089900;28;20748;-80
2023/11/18 18:21:36;;;;;;;15.63;7.97;;;;;;;11.81;46.04;101430.09;5084811;28;20043;-82
2023/11/18 18:24:30;;;;;;;11.73;5.50;;;;;;;11.98;45.57;101427.53;5079504;28;20487;-80
2023/11/18 18:27:23;;;;;;;10.45;5.05;;;;;;;11.77;45.93;101426.38;5084319;28;20293;-80
2023/11/18 18:30:18;;;;;;;12.88;5.47;;;;;;;11.82;45.38;101428.19;5098458;28;20055;-81
2023/11/18 18:33:10;;;;;;;12.50;5.67;;;;;;;11.76;45.70;101430.22;5082954;28;20052;-82
2023/11/18 18:36:04;;;;;;;10.68;4.97;;;;;;;11.98;45.13;101432.19;5075407;28;20047;-81
2023/11/18 18:38:59;;;;;;;8.52;4.30;;;;;;;11.98;45.57;101435.72;5072971;28;20048;-81
2023/11/18 18:41:53;;;;;;;20.67;7.53;;;;;;;11.77;46.07;101450.91;5075727;28;20047;-81
2023/11/18 18:44:48;;;;;;;13.77;5.28;;;;;;;12.05;44.59;101442.66;5084929;28;20058;-79
2023/11/18 18:47:43;;;;;;;6.80;4.07;;;;;;;11.91;44.99;101434.50;5083588;28;20036;-82
2023/11/18 18:50:42;;;;;;;8.85;3.83;;;;;;;11.72;46.09;101450.97;5077158;28;20431;-81
2023/11/18 18:53:31;;;;;;;9.88;4.68;;;;;;;11.95;45.02;101451.88;5070455;28;20055;-80
2023/11/18 18:56:27;;;;;;;11.77;4.68;;;;;;;11.57;46.30;101449.38;5078229;28;20051;-79
2023/11/18 18:59:22;;;;;;;8.83;5.70;;;;;;;11.25;47.42;101446.75;5096682;28;20051;-79
2023/11/18 19:02:16;;;;;;;13.57;5.10;;;;;;;11.45;47.07;101448.25;5074548;28;20047;-80
2023/11/18 19:05:11;;;;;;;12.82;4.47;;;;;;;11.73;45.95;101452.63;5089612;28;20281;-82
2023/11/18 19:08:04;;;;;;;9.25;4.65;;;;;;;11.73;45.78;101447.19;5080873;28;20043;-82
2023/11/18 19:10:54;;;;;;;16.20;9.02;;;;;;;11.52;46.22;101457.66;5088060;28;20047;-81
2023/11/18 19:13:48;;;;;;;20.38;11.70;;;;;;;11.64;46.24;101451.66;5085733;28;20052;-81
2023/11/18 19:16:41;;;;;;;26.98;12.63;;;;;;;11.95;46.13;101470.94;5093934;28;20047;-81
2023/11/18 19:19:34;;;;;;;18.13;9.38;;;;;;;11.55;47.39;101467.13;5080399;28;20044;-81
2023/11/18 19:22:26;;;;;;;10.65;4.68;;;;;;;11.56;45.99;101474.19;5077094;28;20051;-81
2023/11/18 19:25:21;;;;;;;10.77;4.25;;;;;;;11.50;46.54;101465.31;5093989;28;20047;-80
2023/11/18 19:28:15;;;;;;;17.33;6.03;;;;;;;11.66;46.02;101470.44;5095006;28;20042;-81
2023/11/18 19:31:07;;;;;;;12.95;5.90;;;;;;;11.46;46.36;101460.78;5084506;28;20048;-81
2023/11/18 19:34:02;;;;;;;14.82;5.55;;;;;;;11.71;45.86;101459.44;5093067;28;20051;-80
2023/11/18 19:36:52;;;;;;;10.27;5.28;;;;;;;11.64;45.50;101448.94;5080447;28;20047;-80
2023/11/18 19:39:49;;;;;;;14.90;6.60;;;;;;;11.55;46.26;101451.59;5093651;28;20047;-80
2023/11/18 19:42:44;;;;;;;12.88;6.10;;;;;;;11.62;46.00;101450.38;5079186;28;20040;-81
2023/11/18 19:45:38;;;;;;;14.40;5.90;;;;;;;11.66;45.66;101460.34;5082295;28;20532;-82
2023/11/18 19:48:33;;;;;;;11.77;4.72;;;;;;;11.38;46.07;101458.72;5091211;28;20066;-81
2023/11/18 19:51:28;;;;;;;15.65;5.65;;;;;;;11.00;47.62;101456.19;5095705;28;20043;-82
2023/11/18 19:54:20;;;;;;;12.60;5.47;;;;;;;10.98;47.92;101458.41;5094363;28;20047;-82
2023/11/18 19:57:12;;;;;;;10.70;6.28;;;;;;;11.26;46.94;101458.44;5093503;28;20047;-81
2023/11/18 20:00:05;;;;;;;15.73;6.80;;;;;;;11.00;47.47;101467.09;5089239;28;20075;-81
2023/11/18 20:03:04;;;;;;;13.65;6.10;;;;;;;10.50;48.92;101465.22;5079462;28;20500;-80
2023/11/18 20:05:56;;;;;;;22.27;6.50;;;;;;;10.59;49.82;101461.53;5110138;28;20059;-81
2023/11/18 20:08:51;;;;;;;13.98;6.88;;;;;;;10.61;48.34;101463.94;5107136;28;20270;-81
2023/11/18 20:11:53;;;;;;;19.57;6.90;;;;;;;10.79;47.75;101451.41;5080071;28;20110;-81
2023/11/18 20:14:48;;;;;;;14.48;8.00;;;;;;;10.41;49.07;101453.41;5093626;28;20051;-80
2023/11/18 20:17:44;;;;;;;12.90;7.13;;;;;;;10.50;49.79;101446.19;5093057;28;20039;-80
2023/11/18 20:20:34;;;;;;;16.60;7.78;;;;;;;10.21;49.84;101435.47;5107899;28;20043;-81
2023/11/18 20:23:26;;;;;;;23.60;8.77;;;;;;;10.26;50.02;101436.19;5087555;28;20043;-82
2023/11/18 20:26:14;;;;;;;15.63;8.02;;;;;;;10.24;49.80;101449.28;5093265;28;20051;-81
2023/11/18 20:29:06;;;;;;;21.42;7.25;;;;;;;10.49;49.54;101467.13;5107138;28;20047;-81
2023/11/18 20:31:59;;;;;;;18.40;8.02;;;;;;;10.74;48.16;101479.50;5093898;28;20075;-82
2023/11/18 20:34:49;;;;;;;23.60;9.30;;;;;;;10.73;48.13;101484.13;5079903;28;20056;-81
2023/11/18 20:37:45;;;;;;;22.95;8.52;;;;;;;10.66;48.19;101475.56;5077911;28;20047;-82
2023/11/18 20:40:41;;;;;;;21.52;9.10;;;;;;;10.70;47.96;101476.56;5095596;28;20043;-81
2023/11/18 20:43:35;;;;;;;23.07;8.47;;;;;;;10.53;47.84;101472.78;5095440;28;20067;-81
2023/11/18 20:46:27;;;;;;;21.05;8.38;;;;;;;10.27;48.66;101465.00;5079718;28;20282;-81
2023/11/18 20:49:16;;;;;;;14.93;7.57;;;;;;;10.19;49.26;101468.41;5096422;28;20047;-80
2023/11/18 20:52:14;;;;;;;21.75;6.80;;;;;;;10.32;48.81;101469.56;5092912;28;20145;-82
2023/11/18 20:55:09;;;;;;;17.90;7.45;;;;;;;10.22;49.10;101475.94;5111433;28;20047;-82
2023/11/18 20:58:01;;;;;;;13.40;6.10;;;;;;;10.16;49.00;101468.97;5094843;28;20688;-81
2023/11/18 21:00:53;;;;;;;17.17;8.20;;;;;;;9.99;49.56;101454.25;5093303;28;20050;-81
2023/11/18 21:03:46;;;;;;;18.05;8.32;;;;;;;10.00;49.74;101456.69;5098549;28;20547;-81
2023/11/18 21:06:41;;;;;;;21.45;8.48;;;;;;;9.89;50.34;101471.50;5076429;28;20052;-81
2023/11/18 21:09:34;;;;;;;18.90;7.40;;;;;;;9.94;50.19;101476.88;5098219;28;20051;-81
2023/11/18 21:12:29;;;;;;;14.48;7.20;;;;;;;9.87;50.23;101457.41;5090939;28;20059;-80
2023/11/18 21:15:23;;;;;;;15.70;7.65;;;;;;;10.04;50.28;101449.56;5097399;28;20054;-80
2023/11/18 21:18:15;;;;;;;22.77;8.80;;;;;;;10.16;50.03;101466.25;5095174;28;20051;-81
2023/11/18 21:21:08;;;;;;;17.50;8.13;;;;;;;10.39;49.45;101450.16;5076975;28;20063;-81
2023/11/18 21:24:03;;;;;;;16.08;8.27;;;;;;;10.35;49.85;101449.13;5083686;28;20405;-81
2023/11/18 21:26:56;;;;;;;17.70;8.40;;;;;;;10.34;48.50;101448.31;5106958;28;20042;-80
2023/11/18 21:29:49;;;;;;;14.32;8.15;;;;;;;10.09;49.44;101429.66;5081064;28;20297;-80
2023/11/18 21:32:42;;;;;;;13.90;7.22;;;;;;;9.81;50.30;101439.53;5091322;28;20032;-80
2023/11/18 21:35:35;;;;;;;16.33;8.35;;;;;;;9.77;50.48;101436.59;5108878;28;20055;-80
2023/11/18 21:38:27;;;;;;;13.38;7.55;;;;;;;9.74;49.99;101428.25;5077945;28;20043;-81
2023/11/18 21:41:22;;;;;;;15.65;7.82;;;;;;;9.92;50.04;101424.72;5095868;28;20050;-81
2023/11/18 21:44:16;;;;;;;17.20;8.07;;;;;;;10.10;49.31;101432.09;5091951;28;20043;-80
2023/11/18 21:47:10;;;;;;;11.50;6.17;;;;;;;10.25;49.04;101421.00;5096697;28;20039;-80
2023/11/18 21:50:05;;;;;;;19.92;8.05;;;;;;;10.23;48.29;101427.84;5094921;28;20043;-80
2023/11/18 21:52:57;;;;;;;13.90;7.50;;;;;;;10.43;47.64;101440.31;5092748;28;20047;-80
2023/11/18 21:55:54;;;;;;;12.60;6.78;;;;;;;10.22;47.71;101439.81;5081636;28;20055;-81
2023/11/18 21:58:48;;;;;;;12.90;7.03;;;;;;;9.99;48.10;101427.91;5079143;28;20043;-81
2023/11/18 22:01:43;;;;;;;11.00;5.80;;;;;;;9.88;48.37;101424.50;5093072;28;20515;-81
2023/11/18 22:04:35;;;;;;;18.05;7.00;;;;;;;9.96;48.47;101430.38;5094410;28;20531;-81
2023/11/18 22:07:29;;;;;;;13.18;7.10;;;;;;;9.92;48.07;101413.84;5104994;28;20051;-81
2023/11/18 22:10:24;;;;;;;11.77;6.57;;;;;;;9.84;48.56;101428.91;5081386;28;20047;-81
2023/11/18 22:13:20;;;;;;;12.15;7.53;;;;;;;9.95;47.73;101416.00;5085819;28;20039;-81
2023/11/18 22:16:15;;;;;;;14.45;5.78;;;;;;;9.83;48.63;101412.91;5094537;28;20048;-81
2023/11/18 22:19:09;;;;;;;12.23;6.90;;;;;;;9.79;48.77;101409.16;5091507;28;20047;-80
2023/11/18 22:22:04;;;;;;;9.52;4.32;;;;;;;9.70;48.73;101409.00;5081697;28;20273;-81
2023/11/18 22:24:56;;;;;;;12.80;7.67;;;;;;;9.65;49.21;101408.28;5097989;28;20051;-81
2023/11/18 22:27:50;;;;;;;14.60;7.72;;;;;;;9.90;49.04;101415.28;5079049;28;20046;-79
2023/11/18 22:30:42;;;;;;;14.27;6.47;;;;;;;9.76;49.20;101420.59;5105082;28;20043;-80
2023/11/18 22:33:40;;;;;;;18.87;7.33;;;;;;;10.09;48.50;101422.31;5106988;28;20066;-80
2023/11/18 22:36:35;;;;;;;14.63;6.57;;;;;;;10.17;47.93;101440.69;5095556;28;20051;-80
2023/11/18 22:39:29;;;;;;;10.07;5.15;;;;;;;9.94;48.72;101436.13;5085798;28;20051;-80
2023/11/18 22:42:24;;;;;;;13.50;7.70;;;;;;;9.90;48.32;101435.09;5109264;28;20043;-81
2023/11/18 22:45:19;;;;;;;12.10;7.93;;;;;;;9.79;48.42;101430.91;5100702;28;20405;-81
2023/11/18 22:48:14;;;;;;;9.27;5.85;;;;;;;9.82;48.39;101431.09;5108507;28;20420;-81
2023/11/18 22:51:08;;;;;;;10.83;5.60;;;;;;;9.84;48.57;101428.91;5095370;28;20055;-80
2023/11/18 22:54:02;;;;;;;12.63;5.97;;;;;;;9.74;49.16;101418.19;5099291;28;20277;-80
2023/11/18 22:56:57;;;;;;;9.45;4.82;;;;;;;9.80;48.99;101418.94;5082561;28;20055;-81
2023/11/18 22:59:51;;;;;;;11.80;5.20;;;;;;;10.04;49.30;101419.66;5108612;28;20047;-81
2023/11/18 23:02:43;;;;;;;11.67;6.20;;;;;;;10.20;48.71;101437.41;5098158;28;20039;-80
2023/11/18 23:05:39;;;;;;;11.80;5.93;;;;;;;10.32;47.97;101420.63;5109970;28;20401;-80
2023/11/18 23:08:31;;;;;;;10.90;6.03;;;;;;;10.37;48.40;101406.13;5094034;28;20051;-81
2023/11/18 23:11:25;;;;;;;17.42;7.78;;;;;;;10.45;48.25;101408.19;5108931;28;20043;-80
2023/11/18 23:14:17;;;;;;;16.17;8.75;;;;;;;10.32;48.71;101406.22;5080628;28;20054;-81
2023/11/18 23:17:12;;;;;;;14.55;8.00;;;;;;;10.52;48.60;101419.47;5097873;28;20047;-81
2023/11/18 23:20:06;;;;;;;14.73;5.67;;;;;;;10.55;47.95;101419.72;5108409;28;20043;-81
2023/11/18 23:23:00;;;;;;;16.25;6.38;;;;;;;10.25;49.30;101421.00;5113522;28;20551;-81
2023/11/18 23:25:51;;;;;;;11.13;5.80;;;;;;;9.84;50.24;101407.19;5096391;28;20536;-81
2023/11/18 23:28:46;;;;;;;10.80;5.55;;;;;;;9.65;50.76;101414.50;5095128;28;20047;-80
2023/11/18 23:31:41;;;;;;;13.07;6.40;;;;;;;9.73;50.58;101421.19;5094967;28;20047;-80
2023/11/18 23:34:34;;;;;;;;;;;;;;;9.73;51.22;101421.19;5096302;28;20066;-80
2023/11/18 23:37:28;;;;;;;33.00;13.00;;;;;;;9.78;50.89;101393.97;5113011;28;19912;-80
2023/11/18 23:40:23;;;;;;;11.77;5.97;;;;;;;9.73;50.28;101400.28;5082903;28;20515;-81
2023/11/18 23:43:17;;;;;;;18.95;7.90;;;;;;;9.73;50.11;101383.16;5093734;28;20039;-80
2023/11/18 23:46:13;;;;;;;14.82;7.53;;;;;;;10.08;49.90;101379.94;5098121;28;20047;-81
2023/11/18 23:49:12;;;;;;;10.13;5.28;;;;;;;9.96;49.32;101382.28;5109779;28;20408;-81
2023/11/18 23:52:06;;;;;;;8.15;5.00;;;;;;;9.69;50.14;101398.44;5094456;28;20046;-81
2023/11/18 23:55:00;;;;;;;11.77;6.05;;;;;;;9.86;50.24;101401.44;5096426;28;20538;-80
2023/11/18 23:57:55;;;;;;;9.43;5.35;;;;;;;10.02;49.91;101413.72;5079428;28;20047;-80
